Lanham Seabrook, Maryland
Current Conditions -  °F | °C
As of 10:10 PM on Wednesday 26 Nov 2014 (Local Time) from KCGS Reporting Station
Overcast Overcast  
Wind Chill: 33°   Ceiling: 8500
Heat Index: 37°   Visibility: 10mi
Dew Point: 34°   Wind: 6mph
Humidity: 87%   Direction: 280°W
Pressure: 29.99"   Gusts: NA
Location:  38.9695°N, 76.8472°W
Report Text: KCGS 270310Z AUTO 28005KT 10SM OVC085 03/01 A2999 RMK AO1
Loading
Personal Weather Stations






























Interactive Weather Map New forecast layout! Learn more

10-Day Weather Forecast

Advertisements
Track Severe Weather on mobile